Time;durP1;ratioP1;P1;durP2;ratioP2;P2;SDS_P1;SDS_P2;PMS_P1;PMS_P2;Temp;Humidity;BMP_temperature;BMP_pressure;BME280_temperature;BME280_humidity;BME280_pressure;Samples;Min_cycle;Max_cycle;Signal;HPM_P1;HPM_P2
2022/07/29 00:00:04;;;;;;;0.50;0.40;;;19.30;99.90;;;;;;4989218;28;20934;-84
2022/07/29 00:02:32;;;;;;;0.50;0.40;;;19.30;99.90;;;;;;4988166;28;20433;-84
2022/07/29 00:04:59;;;;;;;0.50;0.30;;;19.20;99.90;;;;;;4988721;28;20449;-83
2022/07/29 00:07:26;;;;;;;0.50;0.30;;;19.20;99.90;;;;;;4988106;28;20515;-84
2022/07/29 00:09:52;;;;;;;0.50;0.30;;;19.20;99.90;;;;;;4989372;28;20737;-80
2022/07/29 00:12:21;;;;;;;0.50;0.40;;;19.20;99.90;;;;;;4989087;28;20871;-84
2022/07/29 00:14:48;;;;;;;0.50;0.30;;;19.20;99.90;;;;;;4989604;28;20448;-83
2022/07/29 00:17:16;;;;;;;0.50;0.40;;;19.20;99.90;;;;;;4988037;28;20895;-83
2022/07/29 00:19:43;;;;;;;0.50;0.40;;;19.20;99.90;;;;;;4989030;28;20475;-84
2022/07/29 00:22:10;;;;;;;0.50;0.33;;;19.20;99.90;;;;;;4990261;28;20533;-83
2022/07/29 00:24:37;;;;;;;0.50;0.30;;;19.10;99.90;;;;;;4993051;28;20444;-83
2022/07/29 00:27:04;;;;;;;0.50;0.30;;;19.10;99.90;;;;;;4992240;28;20500;-83
2022/07/29 00:29:31;;;;;;;0.60;0.50;;;19.10;99.90;;;;;;4992933;28;20568;-85
2022/07/29 00:31:58;;;;;;;0.50;0.30;;;19.10;99.90;;;;;;4993073;28;20883;-81
2022/07/29 00:37:10;;;;;;;0.50;0.40;;;19.00;99.90;;;;;;4960809;29;20453;-81
2022/07/29 00:39:37;;;;;;;0.50;0.30;;;19.10;99.90;;;;;;4973377;29;20480;-82
2022/07/29 00:42:05;;;;;;;0.50;0.30;;;19.00;99.90;;;;;;4973990;29;20433;-82
2022/07/29 00:44:31;;;;;;;0.50;0.40;;;19.00;99.90;;;;;;4971072;28;20464;-82
2022/07/29 00:46:58;;;;;;;0.50;0.40;;;18.90;99.90;;;;;;4974344;28;20509;-82
2022/07/29 00:49:27;;;;;;;0.50;0.40;;;18.90;99.90;;;;;;4965536;29;20437;-81
2022/07/29 00:51:54;;;;;;;0.50;0.30;;;18.90;99.90;;;;;;4953393;29;20474;-82
2022/07/29 00:54:21;;;;;;;0.90;0.70;;;18.80;99.90;;;;;;4952721;29;20507;-84
2022/07/29 00:56:47;;;;;;;0.50;0.30;;;18.80;99.90;;;;;;4951615;29;20465;-80
2022/07/29 00:59:14;;;;;;;0.50;0.30;;;18.80;99.90;;;;;;4950212;29;20482;-82
2022/07/29 01:01:41;;;;;;;0.50;0.30;;;18.80;99.90;;;;;;4945316;29;20904;-81
2022/07/29 01:04:08;;;;;;;0.50;0.30;;;18.80;99.90;;;;;;4945260;29;20502;-81
2022/07/29 01:06:36;;;;;;;0.50;0.30;;;18.80;99.90;;;;;;4944505;29;20485;-83
2022/07/29 01:09:03;;;;;;;0.50;0.30;;;18.70;99.90;;;;;;4946931;29;20546;-82
2022/07/29 01:11:30;;;;;;;0.50;0.30;;;18.70;99.90;;;;;;4966222;28;20484;-82
2022/07/29 01:13:58;;;;;;;0.50;0.40;;;18.70;99.90;;;;;;4988103;28;20459;-81
2022/07/29 01:16:31;;;;;;;0.50;0.40;;;18.70;99.90;;;;;;4988035;28;20472;-84
2022/07/29 01:19:07;;;;;;;0.50;0.30;;;18.60;99.90;;;;;;4969707;28;20467;-84
2022/07/29 01:21:52;;;;;;;0.50;0.40;;;18.60;99.90;;;;;;4959964;29;20476;-85
2022/07/29 01:24:38;;;;;;;0.50;0.40;;;18.60;99.90;;;;;;4966004;29;20472;-84
2022/07/29 01:27:24;;;;;;;0.50;0.40;;;18.60;99.90;;;;;;4967450;29;20541;-84
2022/07/29 01:29:57;;;;;;;0.50;0.40;;;18.50;99.90;;;;;;4970680;28;20476;-83
2022/07/29 01:32:28;;;;;;;0.50;0.30;;;18.50;99.90;;;;;;4985733;28;20437;-82
2022/07/29 01:34:59;;;;;;;0.50;0.40;;;18.40;99.90;;;;;;4985943;28;20483;-84
2022/07/29 01:37:30;;;;;;;0.50;0.30;;;18.50;99.90;;;;;;4986955;28;20490;-84
2022/07/29 01:39:59;;;;;;;0.50;0.30;;;18.50;99.90;;;;;;4986434;28;20954;-82
2022/07/29 01:42:32;;;;;;;0.50;0.30;;;18.50;99.90;;;;;;4986778;28;20448;-84
2022/07/29 01:45:07;;;;;;;0.50;0.30;;;18.40;99.90;;;;;;4986220;28;20479;-80
2022/07/29 01:47:39;;;;;;;0.50;0.30;;;18.50;99.90;;;;;;4986195;28;20504;-83
2022/07/29 01:50:11;;;;;;;0.50;0.33;;;18.50;99.90;;;;;;4987065;28;20451;-84
2022/07/29 01:52:43;;;;;;;0.50;0.40;;;18.40;99.90;;;;;;4986312;28;20420;-83
2022/07/29 01:55:15;;;;;;;0.50;0.30;;;18.40;99.90;;;;;;4985858;28;20511;-83
2022/07/29 01:57:45;;;;;;;0.50;0.40;;;18.40;99.90;;;;;;4986160;28;20973;-82
2022/07/29 02:00:15;;;;;;;0.50;0.30;;;18.40;99.90;;;;;;4986013;28;20472;-82
2022/07/29 02:02:45;;;;;;;0.50;0.40;;;18.40;99.90;;;;;;4966841;28;20548;-84
2022/07/29 02:05:16;;;;;;;0.50;0.40;;;18.40;99.90;;;;;;4960594;29;20800;-83
2022/07/29 02:07:45;;;;;;;0.50;0.30;;;18.40;99.90;;;;;;4966156;29;20568;-83
2022/07/29 02:10:13;;;;;;;0.50;0.40;;;18.40;99.90;;;;;;4962226;28;20477;-84
2022/07/29 02:12:43;;;;;;;0.50;0.30;;;18.40;99.90;;;;;;4965911;29;20472;-83
2022/07/29 02:15:12;;;;;;;0.50;0.30;;;18.40;99.90;;;;;;4965573;29;20462;-84
2022/07/29 02:17:44;;;;;;;0.50;0.40;;;18.40;99.90;;;;;;4964991;29;20465;-82
2022/07/29 02:20:11;;;;;;;0.50;0.40;;;18.40;99.90;;;;;;4965376;29;20472;-82
2022/07/29 02:22:41;;;;;;;0.50;0.30;;;18.40;99.90;;;;;;4972677;28;20540;-83
2022/07/29 02:25:10;;;;;;;0.50;0.30;;;18.40;99.90;;;;;;4973690;28;20485;-82
2022/07/29 02:27:40;;;;;;;0.50;0.40;;;18.30;99.90;;;;;;4954731;29;20516;-83
2022/07/29 02:30:09;;;;;;;0.50;0.40;;;18.30;99.90;;;;;;4963957;29;20471;-80
2022/07/29 02:32:40;;;;;;;0.50;0.40;;;18.20;99.90;;;;;;4963216;29;20451;-82
2022/07/29 02:35:10;;;;;;;0.50;0.30;;;18.10;99.90;;;;;;4964516;29;20435;-83
2022/07/29 02:37:38;;;;;;;0.50;0.37;;;18.10;99.90;;;;;;4964151;29;20489;-81
2022/07/29 02:40:09;;;;;;;0.50;0.40;;;18.10;99.90;;;;;;4964364;29;20472;-81
2022/07/29 02:42:38;;;;;;;0.50;0.40;;;18.10;99.90;;;;;;4963536;29;20848;-81
2022/07/29 02:45:06;;;;;;;0.50;0.30;;;18.10;99.90;;;;;;4964820;28;20868;-80
2022/07/29 02:47:37;;;;;;;0.50;0.40;;;18.10;99.90;;;;;;4967272;29;20483;-80
2022/07/29 02:50:11;;;;;;;0.50;0.40;;;18.10;99.90;;;;;;4975633;28;20452;-83
2022/07/29 02:52:43;;;;;;;0.50;0.40;;;18.20;99.90;;;;;;4988436;28;20439;-84
2022/07/29 02:55:17;;;;;;;1.53;1.43;;;18.20;99.90;;;;;;4989153;28;20458;-83
2022/07/29 02:57:47;;;;;;;0.50;0.30;;;18.20;99.90;;;;;;4954362;28;20481;-84
2022/07/29 03:00:16;;;;;;;0.50;0.30;;;18.20;99.90;;;;;;4970691;29;20538;-83
2022/07/29 03:02:46;;;;;;;0.50;0.30;;;18.30;99.90;;;;;;4969875;29;20445;-83
2022/07/29 03:05:19;;;;;;;0.50;0.30;;;18.40;99.90;;;;;;4970090;29;20468;-84
2022/07/29 03:07:50;;;;;;;0.50;0.40;;;18.40;99.90;;;;;;4970408;29;20535;-84
2022/07/29 03:10:17;;;;;;;0.50;0.30;;;18.40;99.90;;;;;;4969909;29;20429;-83
2022/07/29 03:12:44;;;;;;;0.50;0.30;;;18.30;99.90;;;;;;4969364;29;20446;-83
2022/07/29 03:15:12;;;;;;;0.50;0.30;;;18.30;99.90;;;;;;4970104;29;20444;-84
2022/07/29 03:17:40;;;;;;;0.60;0.30;;;18.30;99.90;;;;;;4970076;29;20574;-84
2022/07/29 03:20:08;;;;;;;0.60;0.50;;;18.30;99.90;;;;;;4970233;29;20525;-83
2022/07/29 03:22:43;;;;;;;0.97;0.97;;;18.30;99.90;;;;;;4971405;29;20464;-83
2022/07/29 03:25:10;;;;;;;0.50;0.40;;;18.20;99.90;;;;;;4973321;29;20444;-84
2022/07/29 03:27:37;;;;;;;0.50;0.40;;;18.00;99.90;;;;;;4980782;28;20492;-83
2022/07/29 03:30:05;;;;;;;0.50;0.40;;;17.90;99.90;;;;;;4982405;28;20478;-84
2022/07/29 03:32:32;;;;;;;0.50;0.40;;;17.80;99.90;;;;;;4968131;29;20488;-82
2022/07/29 03:34:58;;;;;;;0.50;0.40;;;17.50;99.90;;;;;;4974401;29;20482;-84
2022/07/29 03:37:25;;;;;;;0.70;0.63;;;17.30;99.90;;;;;;4975383;29;20469;-84
2022/07/29 03:39:57;;;;;;;0.50;0.40;;;17.20;99.90;;;;;;4971044;29;20513;-84
2022/07/29 03:42:27;;;;;;;0.50;0.40;;;17.00;99.90;;;;;;4973114;28;20450;-84
2022/07/29 03:44:56;;;;;;;0.50;0.40;;;16.90;99.90;;;;;;4987866;28;20448;-81
2022/07/29 03:47:26;;;;;;;0.50;0.37;;;16.80;99.90;;;;;;4987728;28;20495;-85
2022/07/29 03:49:57;;;;;;;0.50;0.40;;;16.80;99.90;;;;;;4984606;28;20441;-80
2022/07/29 03:52:24;;;;;;;0.50;0.40;;;16.70;99.90;;;;;;4979932;28;20476;-82
2022/07/29 03:54:53;;;;;;;0.50;0.40;;;16.60;99.90;;;;;;4956312;29;20501;-81
2022/07/29 03:57:22;;;;;;;0.50;0.40;;;16.60;99.90;;;;;;4942257;29;20508;-81
2022/07/29 03:59:50;;;;;;;0.50;0.40;;;16.60;99.90;;;;;;4944064;29;20866;-83
2022/07/29 04:02:19;;;;;;;0.50;0.40;;;16.70;99.90;;;;;;4943041;29;20455;-83
2022/07/29 04:04:46;;;;;;;0.50;0.40;;;16.70;99.90;;;;;;4941965;29;20967;-83
2022/07/29 04:07:13;;;;;;;0.50;0.40;;;16.80;99.90;;;;;;4941652;29;20490;-83
2022/07/29 04:09:41;;;;;;;0.50;0.40;;;16.80;99.90;;;;;;4941308;29;20900;-84
2022/07/29 04:12:10;;;;;;;0.50;0.40;;;16.80;99.90;;;;;;4945320;29;20446;-83
2022/07/29 04:14:37;;;;;;;0.50;0.40;;;16.90;99.90;;;;;;4945883;29;20478;-83
2022/07/29 04:17:04;;;;;;;0.50;0.33;;;16.90;99.90;;;;;;4943770;29;20501;-83
2022/07/29 04:19:32;;;;;;;0.50;0.30;;;16.80;99.90;;;;;;4950290;28;20519;-84
2022/07/29 04:22:00;;;;;;;0.50;0.40;;;16.80;99.90;;;;;;4983069;28;20503;-82
2022/07/29 04:24:27;;;;;;;0.50;0.40;;;16.80;99.90;;;;;;4979809;28;20449;-85
2022/07/29 04:26:55;;;;;;;0.50;0.40;;;16.90;99.90;;;;;;4978740;28;20471;-85
2022/07/29 04:29:23;;;;;;;0.50;0.40;;;16.90;99.90;;;;;;4979993;28;20484;-83
2022/07/29 04:31:50;;;;;;;0.50;0.40;;;17.00;99.90;;;;;;4979791;28;20512;-84
2022/07/29 04:34:16;;;;;;;0.50;0.40;;;17.00;99.90;;;;;;4980494;28;20487;-84
2022/07/29 04:36:43;;;;;;;0.50;0.50;;;17.00;99.90;;;;;;4980163;28;20463;-84
2022/07/29 04:39:10;;;;;;;0.50;0.40;;;17.00;99.90;;;;;;4981434;28;20508;-84
2022/07/29 04:41:37;;;;;;;0.50;0.40;;;16.90;99.90;;;;;;4982008;28;20448;-85
2022/07/29 04:44:05;;;;;;;0.50;0.40;;;17.00;99.90;;;;;;4979212;28;20444;-83
2022/07/29 04:46:34;;;;;;;0.50;0.40;;;17.10;99.90;;;;;;4975750;28;20467;-83
2022/07/29 04:49:01;;;;;;;0.50;0.40;;;17.10;99.90;;;;;;4977686;28;20861;-84
2022/07/29 04:51:27;;;;;;;0.50;0.40;;;17.10;99.90;;;;;;4982624;28;20483;-84
2022/07/29 04:53:54;;;;;;;1.53;1.43;;;17.10;99.90;;;;;;4980460;28;20475;-84
2022/07/29 04:56:21;;;;;;;0.50;0.40;;;17.10;99.90;;;;;;4980369;28;20516;-80
2022/07/29 04:58:48;;;;;;;0.50;0.40;;;17.20;99.90;;;;;;4989202;28;20480;-82
2022/07/29 05:01:15;;;;;;;0.50;0.40;;;17.20;99.90;;;;;;4990203;28;20542;-82
2022/07/29 05:03:43;;;;;;;0.50;0.40;;;17.20;99.90;;;;;;4982990;28;20471;-83
2022/07/29 05:06:10;;;;;;;0.50;0.37;;;17.10;99.90;;;;;;4979686;28;20506;-82
2022/07/29 05:08:38;;;;;;;0.50;0.40;;;17.10;99.90;;;;;;4978490;28;21084;-84
2022/07/29 05:11:05;;;;;;;0.50;0.40;;;17.10;99.90;;;;;;4979432;28;20480;-82
2022/07/29 05:13:31;;;;;;;0.50;0.40;;;17.20;99.90;;;;;;4981555;28;20887;-83
2022/07/29 05:15:58;;;;;;;0.50;0.40;;;17.20;99.90;;;;;;4980741;28;20448;-82
2022/07/29 05:18:25;;;;;;;0.50;0.40;;;17.20;99.90;;;;;;4980368;28;20439;-80
2022/07/29 05:20:53;;;;;;;0.50;0.40;;;17.20;99.90;;;;;;4980167;28;20966;-83
2022/07/29 05:23:20;;;;;;;0.50;0.40;;;17.10;99.90;;;;;;4980677;28;20471;-84
2022/07/29 05:25:47;;;;;;;0.50;0.40;;;17.10;99.90;;;;;;4981063;28;20981;-83
2022/07/29 05:28:14;;;;;;;0.50;0.40;;;17.10;99.90;;;;;;4980073;28;20472;-83
2022/07/29 05:30:41;;;;;;;0.50;0.37;;;17.10;99.90;;;;;;4980177;28;20468;-83
2022/07/29 05:33:08;;;;;;;0.50;0.30;;;17.20;99.90;;;;;;4982172;28;20480;-82
2022/07/29 05:35:36;;;;;;;0.50;0.40;;;17.30;99.90;;;;;;4984933;28;20536;-83
2022/07/29 05:38:05;;;;;;;0.50;0.40;;;17.30;99.90;;;;;;4985095;28;20456;-83
2022/07/29 05:40:32;;;;;;;0.50;0.30;;;17.20;99.90;;;;;;4983767;28;20527;-85
2022/07/29 05:42:59;;;;;;;0.50;0.30;;;17.20;99.90;;;;;;4984401;28;20471;-80
2022/07/29 05:45:25;;;;;;;0.50;0.40;;;17.20;99.90;;;;;;4985760;28;20432;-84
2022/07/29 05:47:52;;;;;;;0.50;0.40;;;17.30;99.90;;;;;;4984868;28;20468;-81
2022/07/29 05:50:19;;;;;;;0.50;0.40;;;17.30;99.90;;;;;;4985320;28;21029;-84
2022/07/29 05:52:46;;;;;;;0.50;0.40;;;17.10;99.90;;;;;;4986356;28;20471;-85
2022/07/29 05:55:14;;;;;;;0.50;0.30;;;17.00;99.90;;;;;;4987274;28;20517;-84
2022/07/29 05:57:43;;;;;;;1.83;1.73;;;16.90;99.90;;;;;;4986445;28;20480;-83
2022/07/29 06:00:11;;;;;;;0.50;0.40;;;16.70;99.90;;;;;;4984653;28;20444;-83
2022/07/29 06:02:38;;;;;;;0.50;0.40;;;16.50;99.90;;;;;;4981939;28;20487;-84
2022/07/29 06:05:05;;;;;;;0.50;0.40;;;16.30;99.90;;;;;;4984710;28;20474;-83
2022/07/29 06:07:32;;;;;;;0.50;0.40;;;16.10;99.90;;;;;;4984239;28;20492;-82
2022/07/29 06:09:59;;;;;;;0.50;0.40;;;16.10;99.90;;;;;;4986742;28;20476;-84
2022/07/29 06:12:27;;;;;;;0.50;0.40;;;16.00;99.90;;;;;;4986171;28;20437;-85
2022/07/29 06:14:54;;;;;;;0.50;0.40;;;15.90;99.90;;;;;;4986086;28;20441;-84
2022/07/29 06:17:21;;;;;;;0.50;0.40;;;15.80;99.90;;;;;;4986836;28;20499;-83
2022/07/29 06:19:47;;;;;;;0.50;0.37;;;15.80;99.90;;;;;;4987951;28;20485;-84
2022/07/29 06:22:16;;;;;;;0.50;0.40;;;15.90;99.90;;;;;;4989357;28;20465;-84
2022/07/29 06:24:43;;;;;;;0.50;0.40;;;15.90;99.90;;;;;;4989305;28;20464;-84
2022/07/29 06:27:11;;;;;;;0.50;0.40;;;15.90;99.90;;;;;;4989726;28;20471;-83
2022/07/29 06:29:39;;;;;;;0.50;0.40;;;16.00;99.90;;;;;;4988081;28;20506;-84
2022/07/29 06:32:07;;;;;;;1.20;0.93;;;15.90;99.90;;;;;;4988393;28;20530;-84
2022/07/29 06:34:34;;;;;;;0.50;0.50;;;16.00;99.90;;;;;;4988733;28;20525;-84
2022/07/29 06:37:02;;;;;;;0.50;0.40;;;15.90;99.90;;;;;;4989266;28;20471;-83
2022/07/29 06:39:29;;;;;;;0.70;0.70;;;15.90;99.90;;;;;;4989328;28;20475;-83
2022/07/29 06:41:56;;;;;;;0.50;0.40;;;16.00;99.90;;;;;;4989660;28;20432;-82
2022/07/29 06:44:23;;;;;;;0.50;0.30;;;16.10;99.90;;;;;;4990286;28;20450;-83
2022/07/29 06:46:51;;;;;;;0.50;0.40;;;16.20;99.90;;;;;;4989431;28;20489;-83
2022/07/29 06:49:18;;;;;;;0.50;0.40;;;16.30;99.90;;;;;;4989571;28;20558;-83
2022/07/29 06:51:45;;;;;;;0.50;0.30;;;16.40;99.90;;;;;;4989435;28;20464;-82
2022/07/29 06:54:12;;;;;;;0.50;0.40;;;16.60;99.90;;;;;;4990160;28;20478;-83
2022/07/29 06:56:41;;;;;;;0.50;0.30;;;16.70;99.90;;;;;;4989623;28;20459;-84
2022/07/29 06:59:09;;;;;;;0.50;0.50;;;16.80;99.90;;;;;;4990226;28;20510;-84
2022/07/29 07:01:37;;;;;;;0.50;0.40;;;16.90;99.90;;;;;;4987758;28;20538;-82
2022/07/29 07:04:06;;;;;;;0.50;0.40;;;17.00;99.90;;;;;;4989595;28;20444;-84
2022/07/29 07:06:33;;;;;;;0.50;0.40;;;17.10;99.90;;;;;;4988199;28;20484;-85
2022/07/29 07:08:59;;;;;;;0.50;0.40;;;17.20;99.90;;;;;;4988007;28;20542;-84
2022/07/29 07:11:26;;;;;;;0.50;0.37;;;17.30;99.90;;;;;;4988171;28;20475;-84
2022/07/29 07:13:53;;;;;;;0.50;0.37;;;17.40;99.90;;;;;;4988866;28;20478;-79
2022/07/29 07:16:20;;;;;;;0.50;0.40;;;17.50;99.90;;;;;;4988851;28;20965;-83
2022/07/29 07:18:47;;;;;;;0.50;0.40;;;17.60;99.90;;;;;;4988771;28;20511;-82
2022/07/29 07:21:15;;;;;;;0.50;0.40;;;17.60;99.90;;;;;;4989165;28;20459;-84
2022/07/29 07:23:42;;;;;;;0.50;0.30;;;17.70;99.90;;;;;;4988790;28;20444;-83
2022/07/29 07:26:09;;;;;;;0.50;0.30;;;17.70;99.90;;;;;;4988969;28;20455;-82
2022/07/29 07:28:36;;;;;;;0.60;0.40;;;17.70;99.90;;;;;;4988899;28;20952;-82
2022/07/29 07:31:03;;;;;;;0.50;0.40;;;17.80;99.90;;;;;;4986598;28;20483;-83
2022/07/29 07:33:30;;;;;;;0.50;0.30;;;17.90;99.90;;;;;;4986590;28;20479;-83
2022/07/29 07:35:57;;;;;;;0.50;0.40;;;17.90;99.90;;;;;;4985994;28;20473;-83
2022/07/29 07:38:25;;;;;;;0.50;0.40;;;17.90;99.90;;;;;;4990318;28;20445;-85
2022/07/29 07:40:52;;;;;;;0.50;0.40;;;17.90;99.90;;;;;;4995954;28;20435;-83
2022/07/29 07:43:19;;;;;;;0.50;0.30;;;17.90;99.90;;;;;;4996832;28;20429;-84
2022/07/29 07:45:45;;;;;;;0.50;0.40;;;18.00;99.90;;;;;;4996919;28;20463;-83
2022/07/29 07:48:12;;;;;;;0.50;0.40;;;18.10;99.90;;;;;;4996485;28;20473;-82
2022/07/29 07:50:39;;;;;;;0.50;0.40;;;18.10;99.90;;;;;;4997179;28;20478;-84
2022/07/29 07:53:06;;;;;;;0.50;0.30;;;18.20;99.90;;;;;;4996627;28;20493;-82
2022/07/29 07:55:34;;;;;;;0.50;0.30;;;18.20;99.90;;;;;;4995939;28;20814;-84
2022/07/29 07:58:01;;;;;;;0.50;0.30;;;18.30;99.90;;;;;;4995411;28;20467;-84
2022/07/29 08:00:28;;;;;;;0.50;0.30;;;18.50;99.90;;;;;;4996169;28;20432;-86
2022/07/29 08:02:55;;;;;;;0.50;0.30;;;18.60;99.90;;;;;;4996040;28;20459;-82
2022/07/29 08:05:22;;;;;;;0.50;0.30;;;18.60;99.90;;;;;;4991512;28;20500;-85
2022/07/29 08:07:48;;;;;;;0.50;0.40;;;18.70;99.90;;;;;;4990087;28;20464;-84
2022/07/29 08:10:51;;;;;;;1.00;1.00;;;18.70;99.90;;;;;;4990649;28;20504;-83
2022/07/29 08:13:04;;;;;;;0.50;0.40;;;18.60;99.90;;;;;;4988811;28;20516;-80
2022/07/29 08:15:31;;;;;;;5.70;4.63;;;18.70;99.90;;;;;;4989933;28;20693;-82
2022/07/29 08:17:58;;;;;;;0.50;0.30;;;18.70;99.90;;;;;;4989532;28;20471;-84
2022/07/29 08:20:25;;;;;;;0.50;0.40;;;18.60;99.90;;;;;;4990088;28;20437;-85
2022/07/29 08:22:53;;;;;;;0.50;0.30;;;18.60;99.90;;;;;;4988574;28;20535;-86
2022/07/29 08:25:20;;;;;;;0.50;0.30;;;18.60;99.90;;;;;;4989656;28;20442;-83
2022/07/29 08:27:47;;;;;;;0.50;0.30;;;18.50;99.90;;;;;;4989203;28;20465;-83
2022/07/29 08:30:15;;;;;;;0.50;0.40;;;18.60;99.90;;;;;;4988966;28;20479;-84
2022/07/29 08:32:42;;;;;;;0.50;0.40;;;18.50;99.90;;;;;;4988281;28;20472;-82
2022/07/29 08:35:09;;;;;;;0.50;0.30;;;18.50;99.90;;;;;;4988207;28;20462;-85
2022/07/29 08:37:36;;;;;;;0.50;0.30;;;18.50;99.90;;;;;;4988418;28;20464;-84
2022/07/29 08:40:05;;;;;;;0.50;0.40;;;18.50;99.90;;;;;;4987692;28;20461;-83
2022/07/29 08:42:32;;;;;;;0.50;0.37;;;18.40;99.90;;;;;;4985224;28;20441;-84
2022/07/29 08:44:59;;;;;;;0.50;0.30;;;18.50;99.90;;;;;;4986477;28;20461;-83
2022/07/29 08:47:29;;;;;;;0.50;0.30;;;18.50;99.90;;;;;;4988135;28;20470;-83
2022/07/29 08:49:55;;;;;;;0.50;0.40;;;18.60;99.90;;;;;;4987903;28;20472;-83
2022/07/29 08:52:25;;;;;;;0.50;0.33;;;18.60;99.90;;;;;;4987772;28;20491;-84
2022/07/29 08:54:54;;;;;;;0.50;0.30;;;18.80;99.90;;;;;;4987061;28;20456;-83
2022/07/29 08:57:22;;;;;;;0.50;0.30;;;18.90;99.90;;;;;;4987144;28;20527;-84
2022/07/29 08:59:53;;;;;;;0.50;0.30;;;18.90;99.90;;;;;;4987137;28;20444;-84
2022/07/29 09:02:22;;;;;;;0.50;0.30;;;18.80;99.90;;;;;;4978189;28;20522;-80
2022/07/29 09:04:51;;;;;;;0.50;0.40;;;18.70;99.90;;;;;;4980585;28;20452;-84
2022/07/29 09:07:19;;;;;;;0.50;0.30;;;18.70;99.90;;;;;;4986213;28;20471;-83
2022/07/29 09:09:47;;;;;;;0.50;0.30;;;18.70;99.90;;;;;;4986039;28;20520;-83
2022/07/29 09:12:15;;;;;;;0.50;0.37;;;18.60;99.90;;;;;;4986317;28;20439;-83
2022/07/29 09:14:42;;;;;;;0.50;0.40;;;18.60;99.90;;;;;;4985803;28;20544;-84
2022/07/29 09:17:09;;;;;;;0.50;0.40;;;18.50;99.90;;;;;;4985744;28;20495;-83
2022/07/29 09:19:38;;;;;;;0.50;0.30;;;18.40;99.90;;;;;;4986824;28;20503;-81
2022/07/29 09:22:09;;;;;;;0.50;0.30;;;18.20;99.90;;;;;;4986862;28;20445;-84
2022/07/29 09:24:47;;;;;;;0.50;0.30;;;17.90;99.90;;;;;;4987276;28;20758;-80
2022/07/29 09:27:22;;;;;;;0.50;0.37;;;17.60;99.90;;;;;;4986889;28;20456;-83
2022/07/29 09:29:57;;;;;;;0.50;0.30;;;17.40;99.90;;;;;;4986745;28;20480;-84
2022/07/29 09:32:25;;;;;;;0.50;0.40;;;17.30;99.90;;;;;;4986012;28;20503;-82
2022/07/29 09:34:51;;;;;;;0.50;0.37;;;17.30;99.90;;;;;;4986189;28;20448;-81
2022/07/29 09:37:28;;;;;;;0.50;0.40;;;17.40;99.90;;;;;;4984566;28;20498;-83
2022/07/29 09:39:55;;;;;;;0.50;0.30;;;17.50;99.90;;;;;;4986651;28;20436;-84
2022/07/29 09:42:32;;;;;;;0.50;0.30;;;17.60;99.90;;;;;;4985690;28;20460;-82
2022/07/29 09:44:59;;;;;;;0.50;0.40;;;17.70;99.90;;;;;;4986217;28;20449;-83
2022/07/29 09:47:44;;;;;;;0.50;0.40;;;17.80;99.90;;;;;;4986191;28;20541;-83
2022/07/29 09:50:12;;;;;;;0.50;0.40;;;18.00;99.90;;;;;;4986500;28;20470;-84
2022/07/29 09:52:48;;;;;;;0.50;0.40;;;18.10;99.90;;;;;;4986264;28;20475;-84
2022/07/29 09:55:15;;;;;;;0.50;0.40;;;18.30;99.90;;;;;;4989773;28;20492;-83
2022/07/29 09:57:43;;;;;;;0.50;0.30;;;18.30;99.90;;;;;;4990439;28;20495;-83
2022/07/29 10:00:12;;;;;;;0.50;0.30;;;18.40;99.90;;;;;;4996427;28;20440;-84
2022/07/29 10:02:41;;;;;;;0.50;0.40;;;18.40;99.90;;;;;;4997753;28;20451;-84
2022/07/29 10:05:18;;;;;;;0.50;0.40;;;18.30;99.90;;;;;;4996112;28;20439;-84
2022/07/29 10:07:48;;;;;;;0.50;0.30;;;18.30;99.90;;;;;;4989978;28;20472;-82
2022/07/29 10:10:20;;;;;;;0.50;0.30;;;18.40;99.90;;;;;;4989319;28;21020;-83
2022/07/29 10:12:55;;;;;;;0.50;0.30;;;18.40;99.90;;;;;;4988411;28;20939;-83
2022/07/29 10:15:24;;;;;;;0.50;0.40;;;18.40;99.90;;;;;;4989587;28;20438;-83
2022/07/29 10:17:52;;;;;;;0.50;0.30;;;18.40;99.90;;;;;;4989274;28;20479;-82
2022/07/29 10:20:19;;;;;;;0.50;0.30;;;18.40;99.90;;;;;;4989618;28;20458;-86
2022/07/29 10:22:48;;;;;;;0.50;0.40;;;18.60;99.90;;;;;;4989743;28;20466;-82
2022/07/29 10:25:16;;;;;;;0.50;0.40;;;18.70;99.90;;;;;;4988793;28;20535;-84
2022/07/29 10:27:43;;;;;;;0.50;0.30;;;18.90;99.90;;;;;;4989567;28;20472;-84
2022/07/29 10:30:12;;;;;;;0.50;0.30;;;19.00;99.90;;;;;;4988634;28;20571;-83
2022/07/29 10:32:57;;;;;;;0.50;0.30;;;19.20;99.90;;;;;;4988566;28;20468;-84
2022/07/29 10:35:54;;;;;;;0.70;0.70;;;19.40;99.90;;;;;;4988757;28;20512;-84
2022/07/29 10:38:45;;;;;;;0.50;0.30;;;19.60;99.90;;;;;;4989032;28;20487;-84
2022/07/29 10:41:37;;;;;;;0.50;0.30;;;19.80;99.90;;;;;;4988061;28;21035;-83
2022/07/29 10:44:09;;;;;;;0.50;0.40;;;20.00;99.90;;;;;;4989244;28;20437;-82
2022/07/29 10:46:37;;;;;;;0.50;0.30;;;20.40;99.90;;;;;;4988772;28;20456;-83
2022/07/29 10:49:13;;;;;;;0.50;0.30;;;20.60;99.90;;;;;;4989261;28;21069;-84
2022/07/29 10:51:54;;;;;;;0.50;0.33;;;20.80;99.90;;;;;;4988952;28;20507;-85
2022/07/29 10:54:49;;;;;;;0.50;0.30;;;21.30;99.90;;;;;;4988979;28;20448;-83
2022/07/29 10:57:20;;;;;;;0.50;0.30;;;21.90;99.90;;;;;;4989079;28;20471;-83
2022/07/29 10:59:48;;;;;;;0.50;0.30;;;22.40;99.90;;;;;;4989372;28;20422;-84
2022/07/29 11:02:44;;;;;;;0.50;0.40;;;22.80;99.90;;;;;;4988356;28;20445;-84
2022/07/29 11:05:12;;;;;;;0.50;0.37;;;23.30;99.90;;;;;;4987357;28;20440;-84
2022/07/29 11:07:41;;;;;;;24.50;22.10;;;24.10;99.90;;;;;;4988361;28;20491;-86
2022/07/29 11:10:25;;;;;;;0.50;0.30;;;25.00;99.90;;;;;;4988914;28;21096;-84
2022/07/29 11:12:52;;;;;;;0.50;0.30;;;26.00;99.90;;;;;;4988298;28;20445;-84
2022/07/29 11:15:20;;;;;;;0.60;0.40;;;26.80;99.90;;;;;;4988722;28;20475;-83
2022/07/29 11:18:08;;;;;;;0.50;0.30;;;27.30;99.90;;;;;;4988899;28;20866;-84
2022/07/29 11:20:41;;;;;;;0.50;0.30;;;27.00;99.90;;;;;;4988043;28;20448;-83
2022/07/29 11:23:26;;;;;;;0.50;0.30;;;27.00;99.90;;;;;;4988366;28;20431;-83
2022/07/29 11:26:19;;;;;;;0.50;0.30;;;27.10;99.90;;;;;;4988247;28;20508;-81
2022/07/29 11:28:57;;;;;;;0.50;0.30;;;27.30;99.90;;;;;;4987649;28;20445;-84
2022/07/29 11:31:36;;;;;;;0.50;0.30;;;28.30;99.90;;;;;;4985816;28;21065;-84
2022/07/29 11:34:20;;;;;;;0.50;0.40;;;29.10;93.90;;;;;;4986450;28;20523;-80
2022/07/29 11:37:22;;;;;;;0.50;0.30;;;30.10;90.20;;;;;;4987614;28;20547;-85
2022/07/29 11:40:22;;;;;;;0.50;0.30;;;31.10;81.90;;;;;;4987309;28;20508;-82
2022/07/29 11:42:51;;;;;;;0.50;0.30;;;31.10;76.10;;;;;;4987245;28;20465;-83
2022/07/29 11:45:23;;;;;;;0.50;0.30;;;31.00;80.60;;;;;;4986942;28;20437;-83
2022/07/29 11:47:57;;;;;;;0.50;0.30;;;30.20;77.80;;;;;;4986956;28;20456;-83
2022/07/29 11:50:36;;;;;;;0.50;0.30;;;30.00;81.00;;;;;;4987328;28;20461;-83
2022/07/29 11:53:10;;;;;;;0.50;0.30;;;30.00;84.00;;;;;;4986627;28;20483;-80
2022/07/29 11:55:39;;;;;;;0.50;0.30;;;29.90;81.20;;;;;;4986357;28;20448;-82
2022/07/29 11:58:07;;;;;;;0.50;0.30;;;29.80;78.40;;;;;;4986550;28;20473;-83
2022/07/29 12:00:35;;;;;;;0.50;0.30;;;29.60;84.30;;;;;;4986822;28;20437;-82
2022/07/29 12:03:04;;;;;;;0.50;0.30;;;29.30;80.90;;;;;;4986303;28;20555;-79
2022/07/29 12:05:34;;;;;;;0.50;0.30;;;29.00;81.00;;;;;;4987325;28;20508;-85
2022/07/29 12:08:07;;;;;;;0.50;0.40;;;28.60;81.50;;;;;;4987272;28;21024;-83
2022/07/29 12:10:34;;;;;;;0.50;0.30;;;28.40;86.70;;;;;;4987381;28;20473;-83
2022/07/29 12:13:01;;;;;;;0.50;0.30;;;28.00;82.80;;;;;;4987518;28;20472;-82
2022/07/29 12:15:29;;;;;;;0.50;0.30;;;27.70;81.20;;;;;;4987226;28;20441;-82
2022/07/29 12:17:56;;;;;;;0.50;0.40;;;27.60;88.80;;;;;;4986501;28;21026;-81
2022/07/29 12:20:24;;;;;;;0.50;0.30;;;27.50;85.10;;;;;;4987206;28;20483;-84
2022/07/29 12:22:53;;;;;;;0.50;0.30;;;27.30;87.50;;;;;;4986648;28;20440;-81
2022/07/29 12:25:21;;;;;;;0.60;0.60;;;27.10;87.00;;;;;;4985855;28;20450;-84
2022/07/29 12:27:48;;;;;;;0.50;0.30;;;26.90;88.40;;;;;;4985858;28;20461;-84
2022/07/29 12:30:17;;;;;;;0.50;0.30;;;26.70;90.10;;;;;;4985701;28;20464;-83
2022/07/29 12:32:48;;;;;;;0.50;0.30;;;26.60;90.50;;;;;;4985476;28;20464;-82
2022/07/29 12:35:16;;;;;;;0.50;0.30;;;26.70;90.80;;;;;;4988757;28;20468;-84
2022/07/29 12:37:46;;;;;;;0.50;0.30;;;26.90;92.90;;;;;;4986738;28;20452;-85
2022/07/29 12:40:16;;;;;;;0.60;0.50;;;27.40;90.80;;;;;;4986791;28;20862;-85
2022/07/29 12:43:07;;;;;;;0.50;0.30;;;27.50;87.30;;;;;;4986515;28;21016;-83
2022/07/29 12:45:34;;;;;;;0.50;0.30;;;27.30;88.20;;;;;;4987258;28;20409;-84
2022/07/29 12:48:02;;;;;;;0.50;0.30;;;27.10;85.70;;;;;;4986860;28;20491;-84
2022/07/29 12:50:31;;;;;;;0.50;0.30;;;26.90;86.50;;;;;;4987129;28;20504;-84
2022/07/29 12:53:11;;;;;;;0.50;0.40;;;26.90;91.40;;;;;;4986221;28;20522;-85
2022/07/29 12:55:48;;;;;;;0.50;0.40;;;26.60;89.50;;;;;;4986585;28;20487;-84
2022/07/29 12:58:27;;;;;;;0.50;0.30;;;26.60;91.10;;;;;;4986713;28;20461;-84
2022/07/29 13:01:02;;;;;;;0.50;0.30;;;26.50;90.80;;;;;;4986511;28;20447;-84
2022/07/29 13:03:43;;;;;;;0.50;0.30;;;26.80;91.80;;;;;;4986549;28;20443;-83